Time;durP1;ratioP1;P1;durP2;ratioP2;P2;SDS_P1;SDS_P2;PMS_P1;PMS_P2;Temp;Humidity;BMP_temperature;BMP_pressure;BME280_temperature;BME280_humidity;BME280_pressure;Samples;Min_cycle;Max_cycle;Signal;HPM_P1;HPM_P2
2022/07/05 00:02:15;;;;;;;0.30;0.30;;;16.50;1.00;;;;;;5029603;28;20192;-76
2022/07/05 00:04:41;;;;;;;0.30;0.30;;;16.50;1.00;;;;;;5030101;28;20237;-76
2022/07/05 00:07:18;;;;;;;0.30;0.30;;;16.60;1.00;;;;;;5031896;28;20175;-76
2022/07/05 00:09:51;;;;;;;0.30;0.30;;;16.50;1.00;;;;;;5032113;28;20228;-76
2022/07/05 00:12:19;;;;;;;0.30;0.30;;;16.50;1.00;;;;;;5030278;28;20651;-76
2022/07/05 00:14:45;;;;;;;0.40;0.40;;;16.60;1.00;;;;;;5030684;28;20184;-76
2022/07/05 00:17:12;;;;;;;0.30;0.30;;;16.50;1.00;;;;;;5032483;28;20191;-76
2022/07/05 00:19:38;;;;;;;0.20;0.20;;;16.50;1.00;;;;;;5031630;28;20265;-76
2022/07/05 00:22:04;;;;;;;0.30;0.30;;;16.40;1.00;;;;;;5030038;28;20210;-77
2022/07/05 00:24:29;;;;;;;0.30;0.30;;;16.40;1.00;;;;;;5031342;28;20183;-76
2022/07/05 00:26:55;;;;;;;0.30;0.30;;;16.30;1.00;;;;;;5032136;28;20180;-76
2022/07/05 00:29:21;;;;;;;0.30;0.30;;;16.30;1.00;;;;;;5031590;28;20266;-76
2022/07/05 00:31:46;;;;;;;0.40;0.40;;;16.20;1.00;;;;;;5029772;28;20242;-77
2022/07/05 00:34:12;;;;;;;0.23;0.23;;;16.20;1.00;;;;;;5030140;28;20225;-77
2022/07/05 00:36:37;;;;;;;0.40;0.40;;;16.20;1.00;;;;;;5031748;28;20176;-76
2022/07/05 00:39:04;;;;;;;0.30;0.30;;;16.10;9.40;;;;;;5031580;28;20192;-77
2022/07/05 00:41:30;;;;;;;0.30;0.30;;;16.10;7.30;;;;;;5029637;28;20265;-77
2022/07/05 00:44:06;;;;;;;0.30;0.30;;;16.10;1.00;;;;;;5029608;28;20187;-77
2022/07/05 00:46:32;;;;;;;0.40;0.40;;;16.10;1.00;;;;;;5032555;28;20661;-76
2022/07/05 00:48:58;;;;;;;0.30;0.30;;;16.00;1.00;;;;;;5031236;28;20262;-76
2022/07/05 00:51:26;;;;;;;0.30;0.30;;;16.00;1.00;;;;;;5030428;28;20194;-76
2022/07/05 00:53:51;;;;;;;0.30;0.30;;;15.90;19.30;;;;;;5028535;28;20555;-77
2022/07/05 00:56:19;;;;;;;0.40;0.40;;;15.90;28.20;;;;;;5031919;28;20172;-76
2022/07/05 00:58:45;;;;;;;0.30;0.30;;;15.80;50.20;;;;;;5031453;28;20184;-77
2022/07/05 01:01:11;;;;;;;0.30;0.30;;;15.80;66.50;;;;;;5030665;28;20270;-77
2022/07/05 01:03:37;;;;;;;0.30;0.30;;;15.80;77.50;;;;;;5027312;28;20557;-77
2022/07/05 01:06:06;;;;;;;0.30;0.30;;;15.70;56.40;;;;;;5031246;28;20188;-77
2022/07/05 01:08:35;;;;;;;0.30;0.30;;;15.70;11.20;;;;;;5031840;28;20180;-77
2022/07/05 01:11:00;;;;;;;0.37;0.37;;;15.60;9.50;;;;;;5031397;28;20664;-77
2022/07/05 01:13:26;;;;;;;0.40;0.40;;;15.40;26.40;;;;;;5027957;28;20204;-77
2022/07/05 01:15:52;;;;;;;0.30;0.30;;;15.50;56.60;;;;;;5031008;28;20265;-77
2022/07/05 01:18:19;;;;;;;0.30;0.30;;;15.40;43.40;;;;;;5034266;28;20641;-77
2022/07/05 01:20:47;;;;;;;0.30;0.30;;;15.40;59.70;;;;;;5034209;28;20250;-77
2022/07/05 01:23:12;;;;;;;0.20;0.20;;;15.40;57.60;;;;;;5033088;28;20192;-77
2022/07/05 01:25:38;;;;;;;0.40;0.40;;;15.40;41.10;;;;;;5034538;28;20187;-77
2022/07/05 01:28:04;;;;;;;0.30;0.30;;;15.30;39.80;;;;;;5034707;28;20172;-77
2022/07/05 01:30:33;;;;;;;0.40;0.40;;;15.20;41.70;;;;;;5033971;28;20214;-77
2022/07/05 01:32:58;;;;;;;0.30;0.30;;;15.10;41.40;;;;;;5032813;28;20215;-77
2022/07/05 01:35:24;;;;;;;0.30;0.30;;;15.00;61.00;;;;;;5033114;28;20665;-77
2022/07/05 01:37:51;;;;;;;0.30;0.30;;;15.00;63.40;;;;;;5034912;28;20187;-78
2022/07/05 01:40:18;;;;;;;0.30;0.30;;;15.00;87.20;;;;;;5034235;28;20310;-77
2022/07/05 01:42:44;;;;;;;0.30;0.30;;;15.00;99.90;;;;;;5031993;28;20199;-77
2022/07/05 01:45:10;;;;;;;0.40;0.40;;;15.10;99.90;;;;;;5033756;28;20218;-77
2022/07/05 01:47:40;;;;;;;0.30;0.30;;;15.10;99.90;;;;;;5034140;28;20306;-77
2022/07/05 01:50:08;;;;;;;0.40;0.40;;;15.10;99.90;;;;;;5034061;28;20180;-77
2022/07/05 01:52:38;;;;;;;0.30;0.30;;;15.10;99.90;;;;;;5032433;28;20204;-77
2022/07/05 01:55:04;;;;;;;0.40;0.40;;;15.00;99.90;;;;;;5032718;28;20180;-77
2022/07/05 01:57:30;;;;;;;0.43;0.43;;;15.00;99.90;;;;;;5033928;28;20182;-77
2022/07/05 01:59:55;;;;;;;0.30;0.30;;;15.00;99.90;;;;;;5033374;28;20211;-77
2022/07/05 02:02:21;;;;;;;0.40;0.40;;;15.00;99.90;;;;;;5031300;28;20326;-77
2022/07/05 02:04:46;;;;;;;0.40;0.40;;;15.10;99.90;;;;;;5032708;28;20175;-76
2022/07/05 02:07:12;;;;;;;0.40;0.40;;;15.10;99.90;;;;;;5034053;28;20255;-77
2022/07/05 02:09:38;;;;;;;0.40;0.40;;;15.00;99.90;;;;;;5033499;28;20182;-77
2022/07/05 02:12:04;;;;;;;0.30;0.30;;;15.00;99.90;;;;;;5031149;28;20715;-77
2022/07/05 02:14:30;;;;;;;0.30;0.30;;;15.00;99.90;;;;;;5033168;28;20172;-76
2022/07/05 02:16:56;;;;;;;0.30;0.30;;;15.00;95.00;;;;;;5033619;28;20227;-77
2022/07/05 02:19:22;;;;;;;0.30;0.30;;;15.00;96.50;;;;;;5033290;28;20259;-77
2022/07/05 02:21:48;;;;;;;0.30;0.30;;;14.90;91.30;;;;;;5031668;28;20223;-77
2022/07/05 02:24:13;;;;;;;0.30;0.30;;;14.90;95.80;;;;;;5031742;28;20221;-76
2022/07/05 02:26:39;;;;;;;0.30;0.30;;;14.90;99.90;;;;;;5033685;28;20631;-77
2022/07/05 02:29:04;;;;;;;0.30;0.30;;;14.90;59.60;;;;;;5031749;28;20222;-77
2022/07/05 02:31:31;;;;;;;0.30;0.30;;;14.80;72.90;;;;;;5031653;28;20546;-77
2022/07/05 02:33:56;;;;;;;0.47;0.47;;;14.70;64.80;;;;;;5031650;28;20190;-77
2022/07/05 02:36:22;;;;;;;0.30;0.30;;;14.60;98.20;;;;;;5033834;28;20262;-77
2022/07/05 02:38:47;;;;;;;0.33;0.33;;;14.60;99.90;;;;;;5033325;28;20211;-76
2022/07/05 02:41:13;;;;;;;0.30;0.30;;;14.50;99.90;;;;;;5033049;28;20207;-76
2022/07/05 02:43:39;;;;;;;0.30;0.30;;;14.40;99.90;;;;;;5031299;28;20196;-77
2022/07/05 02:46:06;;;;;;;0.30;0.30;;;14.40;96.70;;;;;;5033441;28;20225;-76
2022/07/05 02:48:35;;;;;;;0.47;0.47;;;14.30;99.90;;;;;;5034074;28;20641;-75
2022/07/05 02:51:01;;;;;;;0.30;0.30;;;14.30;99.90;;;;;;5035737;28;20180;-76
2022/07/05 02:53:26;;;;;;;0.40;0.40;;;14.30;99.90;;;;;;5032654;28;20195;-76
2022/07/05 02:55:52;;;;;;;0.40;0.40;;;14.30;99.90;;;;;;5035442;28;20565;-75
2022/07/05 02:58:18;;;;;;;0.50;0.50;;;14.30;99.90;;;;;;5035836;28;20206;-75
2022/07/05 03:00:44;;;;;;;0.47;0.47;;;14.20;99.90;;;;;;5035645;28;20233;-75
2022/07/05 03:03:10;;;;;;;0.37;0.37;;;14.20;99.90;;;;;;5032627;28;20206;-75
2022/07/05 03:05:36;;;;;;;0.30;0.30;;;14.20;99.90;;;;;;5035319;28;20192;-75
2022/07/05 03:08:01;;;;;;;0.40;0.40;;;14.20;99.90;;;;;;5035875;28;20172;-74
2022/07/05 03:10:27;;;;;;;0.40;0.40;;;14.10;99.90;;;;;;5034198;28;20685;-75
2022/07/05 03:12:53;;;;;;;0.37;0.37;;;14.20;99.90;;;;;;5030711;28;20243;-75
2022/07/05 03:15:18;;;;;;;0.30;0.30;;;14.20;99.90;;;;;;5030973;28;20223;-75
2022/07/05 03:17:44;;;;;;;0.40;0.40;;;14.10;99.90;;;;;;5033145;28;20625;-76
2022/07/05 03:20:10;;;;;;;0.30;0.30;;;14.10;99.90;;;;;;5031877;28;20346;-76
2022/07/05 03:22:36;;;;;;;0.40;0.40;;;14.00;99.90;;;;;;5028858;28;20200;-76
2022/07/05 03:25:02;;;;;;;0.30;0.30;;;13.90;99.90;;;;;;5032048;28;20187;-77
2022/07/05 03:27:28;;;;;;;0.30;0.30;;;13.90;99.90;;;;;;5032670;28;20266;-76
2022/07/05 03:29:53;;;;;;;0.40;0.40;;;13.90;99.90;;;;;;5031691;28;20206;-76
2022/07/05 03:32:19;;;;;;;0.40;0.40;;;14.00;99.90;;;;;;5029183;28;20215;-76
2022/07/05 03:34:45;;;;;;;0.30;0.30;;;14.00;99.90;;;;;;5030928;28;20230;-77
2022/07/05 03:37:10;;;;;;;0.40;0.40;;;14.00;99.90;;;;;;5032295;28;20176;-76
2022/07/05 03:39:36;;;;;;;0.30;0.30;;;14.10;99.90;;;;;;5031302;28;20254;-76
2022/07/05 03:42:01;;;;;;;0.30;0.30;;;14.10;99.90;;;;;;5029936;28;20720;-76
2022/07/05 03:44:27;;;;;;;0.37;0.37;;;14.10;99.90;;;;;;5030706;28;20509;-76
2022/07/05 03:46:53;;;;;;;0.40;0.40;;;14.00;99.90;;;;;;5032435;28;20200;-76
2022/07/05 03:49:18;;;;;;;0.30;0.30;;;14.10;99.90;;;;;;5031819;28;20617;-77
2022/07/05 03:51:44;;;;;;;0.40;0.40;;;14.00;99.90;;;;;;5029658;28;20798;-77
2022/07/05 03:54:09;;;;;;;0.40;0.40;;;14.00;99.90;;;;;;5029625;28;20207;-76
2022/07/05 03:56:35;;;;;;;0.40;0.40;;;14.00;99.90;;;;;;5031991;28;20518;-77
2022/07/05 03:59:00;;;;;;;0.50;0.50;;;14.00;99.90;;;;;;5031394;28;20557;-77
2022/07/05 04:01:26;;;;;;;0.40;0.40;;;14.00;99.90;;;;;;5028964;28;20219;-76
2022/07/05 04:03:52;;;;;;;0.40;0.40;;;14.10;99.90;;;;;;5027679;28;20266;-77
2022/07/05 04:06:17;;;;;;;0.40;0.40;;;14.10;99.90;;;;;;5031758;28;20229;-77
2022/07/05 04:08:43;;;;;;;0.30;0.30;;;14.10;99.90;;;;;;5031830;28;20267;-77
2022/07/05 04:11:10;;;;;;;0.40;0.40;;;14.20;99.90;;;;;;5031376;28;20697;-71
2022/07/05 04:13:35;;;;;;;0.40;0.40;;;14.20;99.90;;;;;;5028183;28;20696;-69
2022/07/05 04:16:01;;;;;;;0.33;0.33;;;14.30;99.90;;;;;;5029303;28;20195;-70
2022/07/05 04:18:27;;;;;;;0.33;0.33;;;14.50;99.90;;;;;;5031550;28;20664;-70
2022/07/05 04:20:52;;;;;;;0.30;0.30;;;14.50;99.90;;;;;;5031283;28;20207;-70
2022/07/05 04:23:18;;;;;;;0.40;0.40;;;14.60;99.90;;;;;;5028609;28;20191;-70
2022/07/05 04:25:43;;;;;;;0.30;0.30;;;14.50;99.90;;;;;;5030367;28;20180;-69
2022/07/05 04:28:09;;;;;;;0.40;0.40;;;14.60;99.90;;;;;;5031428;28;20176;-69
2022/07/05 04:30:34;;;;;;;0.40;0.40;;;14.60;99.90;;;;;;5030949;28;20191;-69
2022/07/05 04:33:00;;;;;;;0.30;0.30;;;14.60;99.90;;;;;;5027956;28;20199;-69
2022/07/05 04:35:26;;;;;;;0.40;0.40;;;14.70;99.90;;;;;;5030974;28;20649;-70
2022/07/05 04:37:51;;;;;;;0.33;0.33;;;14.90;99.90;;;;;;5031572;28;20175;-75
2022/07/05 04:40:17;;;;;;;0.40;0.40;;;14.90;99.90;;;;;;5031345;28;20219;-75
2022/07/05 04:42:42;;;;;;;0.30;0.30;;;14.80;99.90;;;;;;5028694;28;20203;-75
2022/07/05 04:45:09;;;;;;;0.30;0.30;;;14.80;99.90;;;;;;5029465;28;20187;-76
2022/07/05 04:47:35;;;;;;;0.30;0.30;;;14.90;99.90;;;;;;5031182;28;20176;-75
2022/07/05 04:50:02;;;;;;;0.40;0.40;;;14.70;99.90;;;;;;5030931;28;20179;-76
2022/07/05 04:52:27;;;;;;;0.40;0.40;;;14.80;99.90;;;;;;5030607;28;20334;-75
2022/07/05 04:54:53;;;;;;;0.30;0.30;;;14.90;99.90;;;;;;5033889;28;20266;-75
2022/07/05 04:57:19;;;;;;;0.33;0.33;;;14.90;99.90;;;;;;5032953;28;20212;-76
2022/07/05 04:59:44;;;;;;;0.30;0.30;;;14.80;99.90;;;;;;5028422;28;20207;-73
2022/07/05 05:02:10;;;;;;;0.40;0.40;;;14.60;99.90;;;;;;5029363;28;20195;-73
2022/07/05 05:04:35;;;;;;;0.30;0.30;;;14.90;99.90;;;;;;5031735;28;20413;-72
2022/07/05 05:07:01;;;;;;;0.30;0.30;;;15.10;99.90;;;;;;5034318;28;20259;-73
2022/07/05 05:09:27;;;;;;;0.30;0.30;;;15.30;99.90;;;;;;5034005;28;20179;-73
2022/07/05 05:11:52;;;;;;;0.20;0.20;;;15.50;42.30;;;;;;5031682;28;20609;-73
2022/07/05 05:14:17;;;;;;;0.40;0.40;;;15.60;9.50;;;;;;5033015;28;20179;-71
2022/07/05 05:16:43;;;;;;;0.40;0.40;;;15.70;8.20;;;;;;5034594;28;20596;-72
2022/07/05 05:19:09;;;;;;;0.30;0.30;;;15.90;13.60;;;;;;5032171;28;20234;-72
2022/07/05 05:21:34;;;;;;;0.30;0.30;;;16.00;5.20;;;;;;5033526;28;20204;-75
2022/07/05 05:24:00;;;;;;;0.33;0.33;;;16.10;22.20;;;;;;5034721;28;20176;-74
2022/07/05 05:26:25;;;;;;;0.30;0.30;;;16.20;15.00;;;;;;5034647;28;20199;-74
2022/07/05 05:28:51;;;;;;;0.30;0.30;;;16.50;20.30;;;;;;5034454;28;20270;-74
2022/07/05 05:31:17;;;;;;;0.30;0.30;;;16.70;44.70;;;;;;5034476;28;20224;-77
2022/07/05 05:33:43;;;;;;;0.30;0.30;;;16.90;14.30;;;;;;5034683;28;20176;-74
2022/07/05 05:36:09;;;;;;;0.40;0.40;;;16.90;1.00;;;;;;5034853;28;20176;-74
2022/07/05 05:38:34;;;;;;;0.30;0.30;;;16.80;1.00;;;;;;5034449;28;20637;-75
2022/07/05 05:41:00;;;;;;;0.40;0.40;;;16.80;1.00;;;;;;5033863;28;20218;-74
2022/07/05 05:43:26;;;;;;;0.30;0.30;;;16.80;1.00;;;;;;5034557;28;20203;-75
2022/07/05 05:45:51;;;;;;;0.30;0.30;;;17.00;1.00;;;;;;5034394;28;20184;-74
2022/07/05 05:48:18;;;;;;;0.30;0.30;;;17.00;1.00;;;;;;5034503;28;20722;-75
2022/07/05 05:50:43;;;;;;;0.30;0.30;;;17.00;1.00;;;;;;5033619;28;20189;-74
2022/07/05 05:53:09;;;;;;;0.30;0.30;;;17.10;1.00;;;;;;5034184;28;20196;-75
2022/07/05 05:55:35;;;;;;;0.30;0.30;;;17.10;1.00;;;;;;5034186;28;20557;-75
2022/07/05 05:58:21;;;;;;;0.30;0.30;;;17.10;1.00;;;;;;5034543;28;20214;-74
2022/07/05 06:00:48;;;;;;;0.40;0.40;;;17.00;1.00;;;;;;5033614;28;20215;-74
2022/07/05 06:03:14;;;;;;;0.37;0.37;;;17.10;1.00;;;;;;5033870;28;20187;-75
2022/07/05 06:05:40;;;;;;;0.30;0.30;;;17.20;1.00;;;;;;5034099;28;20175;-74
2022/07/05 06:08:06;;;;;;;0.30;0.30;;;17.30;1.00;;;;;;5033888;28;20194;-74
2022/07/05 06:10:33;;;;;;;0.40;0.40;;;17.40;1.00;;;;;;5033638;28;20176;-74
2022/07/05 06:13:01;;;;;;;0.30;0.30;;;17.40;1.00;;;;;;5033896;28;20537;-74
2022/07/05 06:15:27;;;;;;;0.30;0.30;;;17.60;1.00;;;;;;5033860;28;20187;-74
2022/07/05 06:17:53;;;;;;;0.40;0.40;;;17.70;1.00;;;;;;5033835;28;20180;-74
2022/07/05 06:20:24;;;;;;;0.30;0.30;;;17.90;1.00;;;;;;5033241;28;20217;-74
2022/07/05 06:22:51;;;;;;;0.40;0.40;;;18.10;99.90;;;;;;5033515;28;20203;-74
2022/07/05 06:25:17;;;;;;;0.40;0.40;;;18.10;99.90;;;;;;5033867;28;20270;-75
2022/07/05 06:27:47;;;;;;;0.33;0.33;;;18.20;99.90;;;;;;5033692;28;20279;-75
2022/07/05 06:30:15;;;;;;;0.30;0.30;;;18.20;99.90;;;;;;5032999;28;20669;-74
2022/07/05 06:32:43;;;;;;;0.30;0.30;;;18.40;1.00;;;;;;5033522;28;20222;-74
2022/07/05 06:35:09;;;;;;;0.30;0.30;;;18.60;99.90;;;;;;5033358;28;20229;-74
2022/07/05 06:37:48;;;;;;;0.30;0.30;;;18.80;1.00;;;;;;5033720;28;20179;-74
2022/07/05 06:40:28;;;;;;;0.30;0.30;;;19.00;99.90;;;;;;5032869;28;20615;-74
2022/07/05 06:42:56;;;;;;;0.30;0.30;;;19.10;99.90;;;;;;5033684;28;20242;-74
2022/07/05 06:45:22;;;;;;;0.30;0.30;;;19.40;1.00;;;;;;5033422;28;20317;-75
2022/07/05 06:47:58;;;;;;;0.30;0.30;;;19.50;1.00;;;;;;5033208;28;20645;-74
2022/07/05 06:50:25;;;;;;;0.30;0.30;;;19.50;1.00;;;;;;5032862;28;20199;-74
2022/07/05 06:52:51;;;;;;;0.30;0.30;;;19.60;1.00;;;;;;5033166;28;20199;-74
2022/07/05 06:55:16;;;;;;;0.37;0.37;;;19.70;99.90;;;;;;5033117;28;20356;-75
2022/07/05 06:57:43;;;;;;;0.30;0.30;;;19.80;1.00;;;;;;5033261;28;20310;-74
2022/07/05 07:00:10;;;;;;;0.30;0.30;;;19.90;10.10;;;;;;5032401;28;20316;-75
2022/07/05 07:02:35;;;;;;;0.30;0.30;;;19.90;89.30;;;;;;5033179;28;20211;-74
2022/07/05 07:05:01;;;;;;;0.27;0.27;;;19.90;1.00;;;;;;5033041;28;20547;-74
2022/07/05 07:10:11;;;;;;;0.30;0.30;;;19.90;1.00;;;;;;5032690;28;20244;-74
2022/07/05 07:12:36;;;;;;;0.30;0.30;;;19.90;1.00;;;;;;5032628;28;20254;-73
2022/07/05 07:15:02;;;;;;;0.30;0.30;;;20.10;1.00;;;;;;5032212;28;20179;-75
2022/07/05 07:17:28;;;;;;;0.30;0.30;;;20.20;1.00;;;;;;5032990;28;20686;-75
2022/07/05 07:19:54;;;;;;;0.30;0.30;;;20.40;99.90;;;;;;5031935;28;20207;-75
2022/07/05 07:22:19;;;;;;;0.30;0.30;;;20.40;1.00;;;;;;5032549;28;20196;-75
2022/07/05 07:24:45;;;;;;;0.30;0.30;;;20.40;1.00;;;;;;5032698;28;20179;-75
2022/07/05 07:27:10;;;;;;;0.30;0.30;;;20.70;1.00;;;;;;5032447;28;20180;-75
2022/07/05 07:29:37;;;;;;;0.33;0.33;;;20.90;99.90;;;;;;5032388;28;20172;-74
2022/07/05 07:32:05;;;;;;;0.30;0.30;;;21.00;1.00;;;;;;5032177;28;20217;-74
2022/07/05 07:34:31;;;;;;;0.30;0.30;;;21.20;99.90;;;;;;5032499;28;20551;-74
2022/07/05 07:36:57;;;;;;;0.30;0.30;;;21.50;4.00;;;;;;5032304;28;20572;-74
2022/07/05 07:39:23;;;;;;;0.30;0.30;;;21.70;1.00;;;;;;5031689;28;20254;-75
2022/07/05 07:41:49;;;;;;;0.30;0.30;;;22.00;1.00;;;;;;5032123;28;20245;-74
2022/07/05 07:44:16;;;;;;;0.37;0.37;;;22.30;1.00;;;;;;5032325;28;20180;-75
2022/07/05 07:46:41;;;;;;;0.37;0.37;;;22.40;1.00;;;;;;5032129;28;20648;-74
2022/07/05 07:49:08;;;;;;;0.30;0.30;;;22.60;1.00;;;;;;5031237;28;20179;-74
2022/07/05 07:51:34;;;;;;;0.30;0.30;;;22.90;1.00;;;;;;5031910;28;20651;-74
2022/07/05 07:53:59;;;;;;;0.20;0.20;;;23.30;1.00;;;;;;5031916;28;20648;-74
2022/07/05 07:56:25;;;;;;;0.30;0.30;;;23.40;1.00;;;;;;5031816;28;20184;-75
2022/07/05 07:58:51;;;;;;;0.30;0.30;;;23.70;1.00;;;;;;5031890;28;20214;-74
2022/07/05 08:01:17;;;;;;;0.30;0.30;;;24.20;1.00;;;;;;5031830;28;20254;-75
2022/07/05 08:03:43;;;;;;;0.40;0.40;;;24.60;1.00;;;;;;5032106;28;20763;-74
2022/07/05 08:06:10;;;;;;;0.30;0.30;;;25.30;1.00;;;;;;5031724;28;20211;-75
2022/07/05 08:08:40;;;;;;;0.40;0.40;;;25.50;1.00;;;;;;5031887;28;20176;-75
2022/07/05 08:11:08;;;;;;;0.40;0.40;;;25.70;1.00;;;;;;5031282;28;20168;-75
2022/07/05 08:13:34;;;;;;;0.40;0.40;;;25.90;1.00;;;;;;5031683;28;20200;-74
2022/07/05 08:16:00;;;;;;;0.33;0.33;;;26.10;1.00;;;;;;5031754;28;20667;-74
2022/07/05 08:23:55;;;;;;;0.33;0.33;;;25.70;1.00;;;;;;5031671;28;20182;-75
2022/07/05 08:26:21;;;;;;;0.40;0.40;;;26.10;1.00;;;;;;5031673;28;20176;-75
2022/07/05 08:28:47;;;;;;;0.40;0.40;;;26.30;1.00;;;;;;5031604;28;20524;-75
2022/07/05 08:31:12;;;;;;;0.30;0.30;;;26.30;1.00;;;;;;5031091;28;20192;-75
2022/07/05 08:33:38;;;;;;;0.30;0.30;;;26.50;1.00;;;;;;5031342;28;20688;-75
2022/07/05 08:36:04;;;;;;;0.20;0.20;;;26.70;1.00;;;;;;5031473;28;20180;-75
2022/07/05 08:38:29;;;;;;;0.40;0.40;;;26.40;1.00;;;;;;5031368;28;20168;-74
2022/07/05 08:40:56;;;;;;;0.30;0.30;;;26.40;1.00;;;;;;5031059;28;20230;-74
2022/07/05 08:43:23;;;;;;;0.40;0.40;;;26.60;1.00;;;;;;5031333;28;20220;-74
2022/07/05 08:45:50;;;;;;;0.37;0.37;;;26.90;1.00;;;;;;5031488;28;20207;-75
2022/07/05 08:48:19;;;;;;;0.40;0.40;;;27.00;1.00;;;;;;5031455;28;20200;-75
2022/07/05 08:50:48;;;;;;;0.40;0.40;;;27.20;1.00;;;;;;5030449;28;20657;-74
2022/07/05 08:53:15;;;;;;;0.40;0.40;;;27.60;1.00;;;;;;5031389;28;20188;-74
2022/07/05 08:55:42;;;;;;;0.30;0.30;;;27.90;1.00;;;;;;5031277;28;20732;-73
2022/07/05 08:58:07;;;;;;;0.40;0.40;;;27.70;1.00;;;;;;5031367;28;20214;-73
2022/07/05 09:00:34;;;;;;;0.40;0.40;;;27.90;1.00;;;;;;5030632;28;20212;-73
2022/07/05 09:02:59;;;;;;;0.33;0.33;;;27.90;1.00;;;;;;5031049;28;20234;-74
2022/07/05 09:05:25;;;;;;;0.40;0.40;;;28.20;1.00;;;;;;5031434;28;20595;-74
2022/07/05 09:08:01;;;;;;;0.40;0.40;;;28.50;1.00;;;;;;5031438;28;20180;-73
2022/07/05 09:10:28;;;;;;;0.47;0.47;;;28.70;1.00;;;;;;5030766;28;20187;-73
2022/07/05 09:12:55;;;;;;;0.60;0.60;;;28.90;1.00;;;;;;5030915;28;20311;-74
2022/07/05 09:15:21;;;;;;;0.50;0.50;;;28.90;1.00;;;;;;5031001;28;20212;-74
2022/07/05 09:17:47;;;;;;;0.53;0.53;;;28.90;1.00;;;;;;5030829;28;20219;-73
2022/07/05 09:20:14;;;;;;;0.50;0.50;;;29.00;1.00;;;;;;5030527;28;20680;-74
2022/07/05 09:22:44;;;;;;;0.40;0.40;;;28.90;1.00;;;;;;5031126;28;20200;-73
2022/07/05 09:25:18;;;;;;;0.57;0.57;;;29.00;1.00;;;;;;5031065;28;20184;-73
2022/07/05 09:27:48;;;;;;;0.60;0.60;;;29.20;1.00;;;;;;5031051;28;20183;-74
2022/07/05 09:30:28;;;;;;;0.60;0.60;;;29.50;1.00;;;;;;5030300;28;20184;-74
2022/07/05 09:33:05;;;;;;;0.57;0.57;;;29.50;1.00;;;;;;5031081;28;20199;-73
2022/07/05 09:35:36;;;;;;;0.60;0.60;;;29.60;1.00;;;;;;5031503;28;20187;-74
2022/07/05 09:38:06;;;;;;;0.53;0.53;;;29.60;1.00;;;;;;5031957;28;20183;-74
2022/07/05 09:40:56;;;;;;;0.50;0.50;;;29.70;1.00;;;;;;5033857;28;20410;-73
2022/07/05 09:43:22;;;;;;;0.60;0.60;;;29.80;1.00;;;;;;5028971;28;20212;-73
2022/07/05 09:45:53;;;;;;;0.40;0.40;;;29.80;1.00;;;;;;5034117;28;20214;-74
2022/07/05 09:48:18;;;;;;;0.60;0.60;;;29.80;1.00;;;;;;5034268;28;20176;-73
2022/07/05 09:50:45;;;;;;;0.50;0.50;;;30.00;1.00;;;;;;5033494;28;20179;-73
2022/07/05 09:53:11;;;;;;;0.47;0.47;;;30.20;1.00;;;;;;5033930;28;20696;-74
2022/07/05 09:55:37;;;;;;;0.47;0.47;;;30.20;1.00;;;;;;5034101;28;20180;-74
2022/07/05 09:58:03;;;;;;;0.50;0.50;;;30.30;1.00;;;;;;5034187;28;20632;-74
2022/07/05 10:00:29;;;;;;;0.50;0.50;;;30.50;1.00;;;;;;5033571;28;20306;-74
2022/07/05 10:03:00;;;;;;;0.67;0.67;;;30.40;1.00;;;;;;5033969;28;20188;-74
2022/07/05 10:05:28;;;;;;;0.40;0.40;;;30.40;1.00;;;;;;5034167;28;20203;-74
2022/07/05 10:08:03;;;;;;;0.60;0.60;;;29.90;1.00;;;;;;5034134;28;20202;-74
2022/07/05 10:10:30;;;;;;;0.60;0.60;;;29.90;1.00;;;;;;5033159;28;20226;-74
2022/07/05 10:13:01;;;;;;;0.40;0.40;;;30.10;1.00;;;;;;5033711;28;20778;-74
2022/07/05 10:15:31;;;;;;;0.53;0.53;;;30.40;1.00;;;;;;5034251;28;20649;-74
2022/07/05 10:18:02;;;;;;;0.50;0.50;;;30.10;1.00;;;;;;5033712;28;20238;-74
2022/07/05 10:20:41;;;;;;;0.57;0.57;;;30.40;1.00;;;;;;5033204;28;20689;-74
2022/07/05 10:23:10;;;;;;;0.60;0.60;;;30.80;1.00;;;;;;5033877;28;20199;-74
2022/07/05 10:25:37;;;;;;;0.60;0.60;;;30.90;1.00;;;;;;5033819;28;20262;-74
2022/07/05 10:28:04;;;;;;;0.60;0.60;;;30.70;1.00;;;;;;5033542;28;20649;-74
2022/07/05 10:30:30;;;;;;;0.50;0.50;;;30.60;1.00;;;;;;5033018;28;20195;-74
2022/07/05 10:32:56;;;;;;;0.60;0.60;;;30.60;1.00;;;;;;5033553;28;20202;-74
2022/07/05 10:35:22;;;;;;;0.60;0.60;;;30.70;1.00;;;;;;5033753;28;20263;-74
2022/07/05 10:37:49;;;;;;;0.63;0.63;;;30.50;1.00;;;;;;5033362;28;20275;-74
2022/07/05 10:40:16;;;;;;;0.50;0.50;;;30.80;1.00;;;;;;5032777;28;20584;-74
2022/07/05 10:42:48;;;;;;;0.57;0.57;;;30.80;1.00;;;;;;5033398;28;20612;-74
2022/07/05 10:45:31;;;;;;;0.40;0.40;;;30.90;1.00;;;;;;5033375;28;20171;-74
2022/07/05 10:48:15;;;;;;;0.60;0.60;;;31.20;1.00;;;;;;5033494;28;20186;-74
2022/07/05 10:50:50;;;;;;;0.50;0.50;;;31.30;1.00;;;;;;5031771;28;20279;-73
2022/07/05 10:53:21;;;;;;;0.53;0.53;;;31.50;1.00;;;;;;5033276;28;20191;-73
2022/07/05 10:55:59;;;;;;;0.50;0.50;;;31.80;1.00;;;;;;5033461;28;20257;-74
2022/07/05 10:58:32;;;;;;;0.55;0.55;;;32.00;1.00;;;;;;5033375;28;20687;-74
2022/07/05 11:01:20;;;;;;;0.60;0.60;;;32.20;1.00;;;;;;5032559;28;20212;-74
2022/07/05 11:03:57;;;;;;;0.60;0.60;;;32.20;1.00;;;;;;5033067;28;20182;-74
2022/07/05 11:06:25;;;;;;;0.50;0.50;;;32.30;1.00;;;;;;5033179;28;20283;-73
2022/07/05 11:08:59;;;;;;;0.60;0.60;;;32.10;1.00;;;;;;5032752;28;20180;-74
2022/07/05 11:11:27;;;;;;;0.60;0.60;;;32.00;1.00;;;;;;5032813;28;20176;-74
2022/07/05 11:13:55;;;;;;;0.50;0.50;;;32.10;1.00;;;;;;5032540;28;20230;-74
2022/07/05 11:16:24;;;;;;;0.50;0.50;;;32.00;1.00;;;;;;5032700;28;20581;-74
2022/07/05 11:19:04;;;;;;;0.50;0.50;;;31.60;1.00;;;;;;5032688;28;20180;-74
2022/07/05 11:21:29;;;;;;;0.60;0.60;;;30.90;1.00;;;;;;5032620;28;20207;-73
2022/07/05 11:24:18;;;;;;;0.50;0.50;;;30.90;1.00;;;;;;5031385;28;20234;-73
2022/07/05 11:26:45;;;;;;;0.50;0.50;;;31.10;1.00;;;;;;5032540;28;20172;-74
2022/07/05 11:29:42;;;;;;;0.60;0.60;;;31.30;1.00;;;;;;5032204;28;20175;-73
2022/07/05 11:32:09;;;;;;;0.67;0.67;;;31.40;1.00;;;;;;5032283;28;20730;-74
2022/07/05 11:34:36;;;;;;;0.40;0.40;;;31.00;1.00;;;;;;5032382;28;20180;-74
2022/07/05 11:37:13;;;;;;;0.63;0.63;;;30.50;1.00;;;;;;5032379;28;20183;-73
2022/07/05 11:39:43;;;;;;;0.50;0.50;;;30.10;1.00;;;;;;5031996;28;20245;-74
2022/07/05 11:42:09;;;;;;;0.50;0.50;;;30.10;1.00;;;;;;5032160;28;20199;-73
2022/07/05 11:44:40;;;;;;;0.50;0.50;;;30.50;1.00;;;;;;5032401;28;20179;-74
2022/07/05 11:47:06;;;;;;;0.50;0.50;;;31.20;1.00;;;;;;5031864;28;20254;-73
2022/07/05 11:49:32;;;;;;;0.60;0.60;;;31.50;1.00;;;;;;5031180;28;20204;-73
2022/07/05 11:51:59;;;;;;;0.50;0.50;;;31.60;1.00;;;;;;5031248;28;20228;-73
2022/07/05 11:54:27;;;;;;;0.50;0.50;;;31.30;1.00;;;;;;5031457;28;20180;-73
2022/07/05 11:56:53;;;;;;;0.50;0.50;;;31.30;1.00;;;;;;5031583;28;20184;-73
2022/07/05 11:59:20;;;;;;;0.50;0.50;;;31.50;1.00;;;;;;5031388;28;20203;-73
2022/07/05 12:01:46;;;;;;;0.50;0.50;;;31.20;1.00;;;;;;5031568;28;20640;-74
2022/07/05 12:04:12;;;;;;;0.60;0.60;;;31.20;1.00;;;;;;5031831;28;20226;-75
2022/07/05 12:06:41;;;;;;;0.70;0.70;;;31.50;1.00;;;;;;5032164;28;20176;-75
2022/07/05 12:09:07;;;;;;;0.53;0.53;;;31.70;1.00;;;;;;5031473;28;20250;-75
2022/07/05 12:14:31;;;;;;;0.57;0.57;;;32.10;1.00;;;;;;5008764;28;20672;-73
2022/07/05 12:17:20;;;;;;;0.60;0.60;;;32.30;1.00;;;;;;5031720;28;20183;-74
2022/07/05 12:19:45;;;;;;;0.50;0.50;;;32.50;1.00;;;;;;5031445;28;20200;-73
2022/07/05 12:22:11;;;;;;;0.60;0.60;;;32.10;1.00;;;;;;5033022;28;20238;-74
2022/07/05 12:24:37;;;;;;;0.50;0.50;;;32.00;1.00;;;;;;5031659;28;20175;-74
2022/07/05 12:27:03;;;;;;;0.70;0.70;;;32.00;1.00;;;;;;5031692;28;20254;-74
2022/07/05 12:29:29;;;;;;;0.57;0.57;;;32.40;1.00;;;;;;5031023;28;20168;-74
2022/07/05 12:32:00;;;;;;;0.40;0.40;;;32.00;1.00;;;;;;5031318;28;20302;-74
2022/07/05 12:34:25;;;;;;;0.50;0.50;;;32.00;1.00;;;;;;5031719;28;20206;-73
2022/07/05 12:36:51;;;;;;;0.52;0.52;;;32.10;1.00;;;;;;5031666;28;20203;-74
2022/07/05 12:39:19;;;;;;;0.60;0.60;;;32.00;1.00;;;;;;5031039;28;20679;-74
2022/07/05 12:41:45;;;;;;;0.60;0.60;;;32.10;1.00;;;;;;5031307;28;20215;-74
2022/07/05 12:44:10;;;;;;;0.60;0.60;;;32.10;1.00;;;;;;5031710;28;20175;-73
2022/07/05 12:46:40;;;;;;;0.60;0.60;;;32.00;1.00;;;;;;5031545;28;20182;-74
2022/07/05 12:49:06;;;;;;;0.47;0.47;;;31.40;1.00;;;;;;5030753;28;20183;-75
2022/07/05 12:51:33;;;;;;;0.53;0.53;;;30.90;1.00;;;;;;5031380;28;20237;-75
2022/07/05 12:59:33;;;;;;;0.60;0.60;;;31.30;1.00;;;;;;5031090;28;20190;-74
2022/07/05 13:01:58;;;;;;;0.60;0.60;;;31.60;1.00;;;;;;5031266;28;20688;-74
2022/07/05 13:04:24;;;;;;;0.60;0.60;;;32.00;1.00;;;;;;5030834;28;20198;-74
2022/07/05 13:07:00;;;;;;;0.60;0.60;;;32.20;1.00;;;;;;5030948;28;20668;-74
2022/07/05 13:09:29;;;;;;;0.50;0.50;;;32.50;1.00;;;;;;5028550;28;20176;-74
2022/07/05 13:12:07;;;;;;;0.50;0.50;;;32.90;1.00;;;;;;5030698;28;20203;-74